Portada
METAR-TAF:

METAR-TAF

Aeropuertos :

Aeródromo Tnte. Gral. Gerardo Pérez Pinedo

Atalaya, Perú

latitud: 10-43-45S, longitud: 073-46-00W, altitud: 229 m

Observación

El informe se hizo hace 10 horas y 4 minutos, a las 20:08 UTC
Viento 7 kt del oeste-noroeste, variando entre oeste-suroeste y norte-noroeste
Temperatura 25°C
Humedad 100%
Presión 1008 hPa
Visibilidad: 1000 m
Cielo nuboso a una altura de 1000 ft, Cumulonimbus.
tormenta, lluvia fuerte

METAR: SPAY 202008Z 29007KT 240V340 1000 +TSRA BKN010CB 25/25 Q1008

Hora: 01:12 (06:12 UTC)


TAF: falta

Observaciones y pronósticos meteorológicos de más de 4000 aeropuertos (mensajes METAR y TAF).

Los puntos amarillos y rojos representan las estaciones disponibles.

Ponga el ratón en el punto deseado para ver el nombre de la estación.

Haga clic para ver las observaciones y los pronósticos meteorológicos.

Para cambiar el mapa : haga clic en los botones verdes con una cruz de color negro para hacer un zoom, en el botón verde con un guión para alejar o en las flechas verdes para mapas adyacentes.


METAR-TAF: